AirNav   Everest Fuels
 
 1078 users online  

W91 Smith Mountain Lake Airport
Moneta, Virginia, USA

GOING TO MONETA?


FAA INFORMATION EFFECTIVE 31 DECEMBER 2020

Location

FAA Identifier: W91
Lat/Long: 37-06-27.8000N 079-35-32.9000W
37-06.463333N 079-35.548333W
37.1077222,-79.5924722
(estimated)
Elevation: 892.2 ft. / 271.9 m (surveyed)
Variation: 09W (2010)
From city: 4 miles SE of MONETA, VA
Time zone: UTC -5 (UTC -4 during Daylight Saving Time)
Zip code: 24121

Airport Operations

Airport use: Open to the public
Activation date: 03/1962
Control tower: no
ARTCC: WASHINGTON CENTER
FSS: LEESBURG FLIGHT SERVICE STATION
NOTAMs facility: DCA (NOTAM-D service available)
Attendance: CONTINUOUS
Wind indicator: yes
Segmented circle: no
Beacon: white-green (lighted land airport)
Operates sunset to sunrise.

Airport Communications

CTAF/UNICOM: 122.975
ROANOKE APPROACH: 135.0
ROANOKE DEPARTURE: 135.0
IC: 135.0

Nearby radio navigation aids

VOR radial/distance  VOR name  Freq  Var
LYHr248/19.2LYNCHBURG VOR/DME109.2005W
ODRr133/(22.6)WOODRUM VOR114.9008W
ROAr126/26.9ROANOKE VOR/DME109.4004W
DANr345/(34.6)DANVILLE VOR113.1006W
SBVr318/38.0SOUTH BOSTON VORTAC110.4005W

 
NDB name  Hdg/Dist  Freq  Var  ID
VINTON121/15.027708WVIT ...- .. -
TECH107/39.236808WTEC - . -.-.

Airport Services

Fuel available: 100LL
24-HR SELF-SERVE FUEL AVAILABLE WITH CREDIT CARD.
Parking: tiedowns
Airframe service: MAJOR
Powerplant service: MAJOR
Bottled oxygen: NONE
Bulk oxygen: NONE

Runway Information

Runway 5/23

Dimensions: 3058 x 50 ft. / 932 x 15 m
Surface: asphalt, in fair condition
Runway edge lights: medium intensity
RUNWAY 5  RUNWAY 23
Latitude: 37-06.285267N37-06.641983N
Longitude: 079-35.770783W079-35.326567W
Elevation: 854.7 ft.892.0 ft.
Traffic pattern: leftleft
Runway heading: 054 magnetic, 045 true234 magnetic, 225 true
Displaced threshold: 250 ft.no
Markings: basic, in good conditionnonprecision, in good condition
Runway end identifier lights: noyes
REIL OTS INDEFLY.
Touchdown point: yes, no lightsyes, no lights
Obstructions: 46 ft. trees, 382 ft. from runway, 93 ft. right of centerline, 3:1 slope to clear
RY 05 HAS +12 FT ROAD AT THLD 100 FT R. PWR POLE 128 FT RIGHT OF APCH 86 FT FM THLD.
15 ft. tree, 238 ft. from runway, 122 ft. left of centerline, 2:1 slope to clear

Airport Ownership and Management from official FAA records

Ownership: Privately-owned
Owner: SMITH MOUNTAIN LAKE AIRPORT, LLC.
1090 CUTLASS RD
MONETA, VA 24121
Phone 540-297-4859
Manager: MOE BAZAZAN
1090 CUTLASS RD
MONETA, VA 24121
Phone 540-297-4859

Airport Operational Statistics

Aircraft based on the field: 29
Single engine airplanes: 28
Multi engine airplanes: 1
    
Aircraft operations: avg 99/week *
76% local general aviation
24% transient general aviation
<1% air taxi
<1% military
* for 12-month period ending 31 December 2019

Additional Remarks

DEER ON & INVOF ARPT.
ROA TWR SVCS AVBL AT 540-563-1307.
LNDG FEE FOR ALL ACFT OVR 5500 LBS.

Instrument Procedures

NOTE: All procedures below are presented as PDF files. If you need a reader for these files, you should download the free Adobe Reader.

NOT FOR NAVIGATION. Please procure official charts for flight.
FAA instrument procedures published for use from 31 December 2020 at 0901Z to 28 January 2021 at 0900Z.

 
IAPs - Instrument Approach Procedures
RNAV (GPS) RWY 23   download (210KB)
NOTE: Special Take-Off Minimums/Departure Procedures apply   download

Other nearby airports with instrument procedures:

W90 - New London Airport (16 nm NE)
KROA - Roanoke-Blacksburg Regional Airport/Woodrum Field (22 nm NW)
KLYH - Lynchburg Regional Airport/Preston Glenn Field (23 nm NE)
0V4 - Brookneal/Campbell County Airport (28 nm E)
W24 - Falwell Airport (28 nm NE)
 
Loc | Ops | Rwys | IFR | FBO | Links
Com | Nav | Svcs | Stats | Notes
Area around W91 (Smith Mountain Lake Airport)
 
Road maps at: MapQuest Bing Google
 
Aerial photo
WARNING: Photo may not be current or correct
Aerial photo of W91 (Smith Mountain Lake Airport)
Photo by Moe
Photo taken 23-May-2015
looking west.

Do you have a better or more recent aerial photo of Smith Mountain Lake Airport that you would like to share? If so, please send us your photo.

 
Sectional chart

 
Airport distance calculator
Flying to Smith Mountain Lake Airport? Find the distance to fly.

From to W91

Sunrise and sunset
Times for 25-Jan-2021
 Local
(UTC-5)
 Zulu
(UTC)
Morning civil twilight06:5911:59
Sunrise07:2712:27
Sunset17:3422:34
Evening civil twilight18:0223:02

Current date and time
Zulu (UTC)  26-Jan-2021 00:28:07
Local (UTC-5)  25-Jan-2021 19:28:07
 
METAR
KROA 
22nm NW 
260008Z 02004KT 4SM +RA BR SCT007 BKN015 OVC021 01/00 A3006 RMK AO2 P0004 T00110000
KLYH 
23nm NE 
252354Z 01008KT 5SM -RA BR OVC004 01/00 A3001 RMK AO2 SLP168 P0020 60052 T00110000 10028 20011 53005
K0V4 
28nm E 
260015Z AUTO 06008KT 7SM OVC005 02/02 A3002 RMK AO1 T00200020
KDAN 
35nm S 
260021Z AUTO 04006KT 2 1/2SM -RA BR OVC004 04/03 A2997 RMK AO2 RAE10B15 CIG 002V006 P0001 T00440033
KMTV 
36nm SW 
260015Z AUTO 05004KT 4SM -DZ OVC003 03/03 A2999 RMK AO2 LTG DSNT W P0001 T00300030
KBCB 
40nm W 
260015Z AUTO 09006KT 7SM -RA SCT003 BKN050 OVC065 02/02 A2999 RMK AO2 LTG DSNT W AND NW P0001 T00150015
KSIF 
42nm S 
252355Z AUTO 03004KT 2 1/2SM -DZ OVC003 04/04 A2997 RMK AO2 60029 T00410041 10053 20041
KW78 
43nm SE 
260015Z AUTO 5SM OVC004 04/03 A3000 RMK AO1 P0003 T00350027
TAF
KROA 
22nm NW 
252000Z 2520/2618 13007KT 2SM -RA BR OVC003 FM260000 VRB04KT 6SM -RA BR OVC004 FM261000 VRB02KT 4SM -RA BR OVC002 FM261600 19005KT P6SM SCT005 BKN013
KLYH 
23nm NE 
252001Z 2520/2618 05007KT 4SM RA BR OVC012 FM260300 05005KT 5SM -RA BR OVC006 FM260600 05006KT 4SM BR OVC002 FM261600 VRB03KT P6SM BKN005
NOTAMs
Click for the latest NOTAMs
NOTAMs are issued by the DoD/FAA and will open in a separate window not controlled by AirNav.

 

 
 

FBO, Fuel Providers, and Aircraft Ground Support

  
 Business Name 
 
 Contact 
 
 Services / Description 
 
Fuel Prices
 
Comments
  
Smith Mountain Lake Airport 540-297-4859
no information available

If you are affiliated with Smith Mountain Lake Airport and would like to show here your services, contact info, web link, logo, and more, click here
100LL
SS $4.24 
 Updated 21-Jan-2021
 
   1 read write
SS=Self service
Update Fuel Prices
 

Would you like to see your business listed on this page?

 If your business provides an interesting product or service to pilots, flight crews, aircraft, or users of the Smith Mountain Lake Airport, you should consider listing it here.  To start the listing process, click on the button below
 
Add a business
 

Other Pages about Smith Mountain Lake Airport

smlairport.com
 
Update a link
 
Copyright © AirNav, LLC. All rights reserved. Privacy Policy  Contact